Time;durP1;ratioP1;P1;durP2;ratioP2;P2;SDS_P1;SDS_P2;PMS_P1;PMS_P2;Temp;Humidity;BMP_temperature;BMP_pressure;BME280_temperature;BME280_humidity;BME280_pressure;Samples;Min_cycle;Max_cycle;Signal;HPM_P1;HPM_P2
2022/08/30 00:02:42;;;;;;;;;3.67;3.00;;;;;22.33;43.17;101252.22;5016643;28;45335;-76
2022/08/30 00:05:08;;;;;;;;;6.33;5.00;;;;;22.28;43.66;101249.44;5016315;28;45646;-75
2022/08/30 00:07:33;;;;;;;;;6.00;5.00;;;;;22.33;43.35;101260.34;5017063;28;45405;-75
2022/08/30 00:09:59;;;;;;;;;5.00;5.00;;;;;22.33;43.59;101254.94;5016997;28;45313;-77
2022/08/30 00:12:25;;;;;;;;;5.33;5.33;;;;;22.31;43.26;101257.06;5035259;28;45355;-75
2022/08/30 00:14:50;;;;;;;;;5.00;3.33;;;;;22.27;43.82;101255.09;5023760;28;47032;-75
2022/08/30 00:17:18;;;;;;;;;6.67;5.00;;;;;22.25;43.84;101246.38;5026904;28;46541;-74
2022/08/30 00:19:43;;;;;;;;;6.00;6.00;;;;;22.26;43.83;101256.13;5016910;28;45418;-75
2022/08/30 00:22:09;;;;;;;;;4.00;3.67;;;;;22.23;43.50;101246.63;5016981;28;45325;-74
2022/08/30 00:24:34;;;;;;;;;3.00;3.00;;;;;22.17;43.53;101245.69;5016871;28;45326;-75
2022/08/30 00:27:00;;;;;;;;;5.67;5.00;;;;;22.18;43.94;101252.75;5016867;28;46411;-77
2022/08/30 00:29:25;;;;;;;;;8.67;8.00;;;;;22.14;43.76;101250.75;5016711;28;45345;-75
2022/08/30 00:31:50;;;;;;;;;3.33;3.33;;;;;22.12;44.13;101258.31;5017297;28;45420;-76
2022/08/30 00:34:15;;;;;;;;;6.33;5.00;;;;;22.10;43.82;101261.25;5032693;28;49801;-75
2022/08/30 00:36:45;;;;;;;;;5.33;5.33;;;;;22.07;44.02;101262.56;5031987;28;47433;-76
2022/08/30 00:39:10;;;;;;;;;6.00;6.00;;;;;22.11;43.59;101262.06;5016501;28;45370;-74
2022/08/30 00:41:36;;;;;;;;;5.00;5.00;;;;;22.16;43.98;101273.00;5023496;28;45442;-75
2022/08/30 00:44:02;;;;;;;;;6.00;5.00;;;;;22.13;44.10;101260.78;5022311;28;45498;-76
2022/08/30 00:46:28;;;;;;;;;6.67;6.67;;;;;22.11;44.01;101254.78;5021361;28;48487;-75
2022/08/30 00:48:55;;;;;;;;;6.00;6.00;;;;;22.07;43.90;101242.78;5024436;28;45285;-75
2022/08/30 00:51:22;;;;;;;;;7.00;6.00;;;;;22.07;43.79;101253.63;5033436;28;45506;-74
2022/08/30 00:53:53;;;;;;;;;6.00;6.00;;;;;22.04;44.13;101257.63;5026044;28;45474;-76
2022/08/30 00:56:19;;;;;;;;;4.00;4.00;;;;;21.97;44.08;101242.56;5016395;28;45608;-75
2022/08/30 00:58:49;;;;;;;;;7.33;5.33;;;;;21.96;44.24;101247.16;5034294;28;45327;-75
2022/08/30 01:01:15;;;;;;;;;6.67;6.67;;;;;21.93;43.88;101253.03;5031701;28;45287;-75
2022/08/30 01:03:42;;;;;;;;;5.00;5.00;;;;;21.88;43.79;101234.81;5049194;28;47387;-75
2022/08/30 01:06:11;;;;;;;;;4.33;4.33;;;;;21.84;44.13;101235.56;5031610;28;47222;-74
2022/08/30 01:08:36;;;;;;;;;4.67;4.67;;;;;21.74;44.40;101234.25;5016169;28;45429;-75
2022/08/30 01:11:03;;;;;;;;;4.67;4.67;;;;;21.74;44.20;101234.25;5016521;28;45318;-74
2022/08/30 01:13:30;;;;;;;;;7.33;5.67;;;;;21.77;44.13;101238.38;5016198;28;45350;-75
2022/08/30 01:15:58;;;;;;;;;6.67;6.67;;;;;21.75;44.42;101238.63;5041187;27;48029;-76
2022/08/30 01:18:24;;;;;;;;;4.67;4.67;;;;;21.72;43.68;101235.53;5023234;28;45332;-75
2022/08/30 01:21:09;;;;;;;;;5.00;5.00;;;;;21.67;44.48;101230.84;5016114;28;45355;-75
2022/08/30 01:23:39;;;;;;;;;5.67;5.33;;;;;21.64;44.46;101240.22;5016148;28;45283;-74
2022/08/30 01:26:05;;;;;;;;;9.00;8.00;;;;;21.64;44.18;101236.72;5020868;28;47392;-77
2022/08/30 01:28:31;;;;;;;;;4.33;4.33;;;;;21.64;44.36;101245.66;5031450;28;45331;-74
2022/08/30 01:30:57;;;;;;;;;5.67;5.67;;;;;21.62;44.32;101242.38;5015905;28;45239;-74
2022/08/30 01:33:23;;;;;;;;;8.33;8.33;;;;;21.66;44.29;101248.13;5041589;28;46141;-74
2022/08/30 01:35:55;;;;;;;;;6.00;6.00;;;;;21.67;43.98;101256.00;5019380;28;45381;-75
2022/08/30 01:38:26;;;;;;;;;4.00;4.00;;;;;21.66;44.58;101259.75;5015821;28;45236;-76
2022/08/30 01:40:58;;;;;;;;;4.67;4.67;;;;;21.65;44.25;101260.00;5028496;28;45400;-75
2022/08/30 01:43:24;;;;;;;;;6.67;6.33;;;;;21.62;44.21;101266.72;5023303;28;46403;-74
2022/08/30 01:45:49;;;;;;;;;6.00;4.00;;;;;21.63;44.50;101278.34;5020695;28;46659;-74
2022/08/30 01:48:15;;;;;;;;;6.33;6.00;;;;;21.65;44.52;101278.94;5015716;28;45242;-76
2022/08/30 01:50:40;;;;;;;;;7.33;7.00;;;;;21.61;44.33;101278.56;5027258;28;45998;-75
2022/08/30 01:53:06;;;;;;;;;4.67;4.67;;;;;21.62;44.70;101288.34;5016739;28;45522;-75
2022/08/30 01:55:31;;;;;;;;;1.00;1.00;;;;;21.62;44.53;101282.09;5015647;28;47208;-75
2022/08/30 01:57:57;;;;;;;;;5.33;5.33;;;;;21.62;44.38;101288.34;5027893;28;45391;-76
2022/08/30 02:00:22;;;;;;;;;4.33;4.33;;;;;21.57;44.23;101283.63;5033996;28;45306;-75
2022/08/30 02:02:48;;;;;;;;;5.00;5.00;;;;;21.59;44.50;101283.41;5025012;28;45513;-75
2022/08/30 02:05:14;;;;;;;;;8.67;5.33;;;;;21.56;44.58;101284.72;5015358;28;45479;-76
2022/08/30 02:07:40;;;;;;;;;5.33;5.33;;;;;21.52;44.76;101288.91;5015492;28;45308;-75
2022/08/30 02:10:06;;;;;;;;;8.00;6.00;;;;;21.54;45.35;101303.03;5015565;28;45360;-75
2022/08/30 02:12:31;;;;;;;;;6.00;6.00;;;;;21.56;44.61;101310.91;5017271;28;46151;-74
2022/08/30 02:14:57;;;;;;;;;8.00;7.00;;;;;21.59;44.27;101321.25;5015087;28;45260;-75
2022/08/30 02:17:23;;;;;;;;;7.67;7.00;;;;;21.61;44.73;101312.91;5025461;28;45214;-75
2022/08/30 02:19:48;;;;;;;;;8.33;6.67;;;;;21.60;44.41;101316.66;5021450;28;45454;-75
2022/08/30 02:22:13;;;;;;;;;6.00;6.00;;;;;21.62;44.99;101317.25;5015249;28;45591;-76
2022/08/30 02:24:39;;;;;;;;;5.67;5.67;;;;;21.60;44.22;101311.25;5014987;28;45955;-75
2022/08/30 02:27:04;;;;;;;;;6.00;6.00;;;;;21.62;44.53;101322.66;5016459;28;45282;-75
2022/08/30 02:29:30;;;;;;;;;5.33;5.00;;;;;21.62;44.41;101309.16;5018419;28;45224;-75
2022/08/30 02:31:55;;;;;;;;;6.00;6.00;;;;;21.61;44.62;101302.09;5018612;28;45244;-75
2022/08/30 02:34:21;;;;;;;;;8.00;6.33;;;;;21.60;44.93;101289.63;5018012;28;45360;-75
2022/08/30 02:36:46;;;;;;;;;6.33;6.33;;;;;21.59;44.82;101290.69;5018345;28;45415;-76
2022/08/30 02:39:13;;;;;;;;;5.33;5.00;;;;;21.56;44.75;101290.13;5031068;28;45455;-75
2022/08/30 02:41:39;;;;;;;;;6.00;5.67;;;;;21.57;45.11;101290.91;5018405;28;45425;-74
2022/08/30 02:44:06;;;;;;;;;6.33;6.33;;;;;21.54;44.56;101286.81;5017828;28;46921;-75
2022/08/30 02:46:31;;;;;;;;;4.67;4.67;;;;;21.55;44.76;101288.44;5022759;28;45322;-77
2022/08/30 02:48:57;;;;;;;;;6.00;6.00;;;;;21.52;45.20;101291.63;5025740;28;45242;-76
2022/08/30 02:51:22;;;;;;;;;6.00;6.00;;;;;21.51;46.04;101303.50;5017886;28;45546;-75
2022/08/30 02:53:48;;;;;;;;;8.00;5.67;;;;;21.53;46.61;101298.69;5026988;28;48045;-75
2022/08/30 02:56:15;;;;;;;;;5.00;4.00;;;;;21.50;46.79;101298.34;5021379;28;45180;-74
2022/08/30 02:58:41;;;;;;;;;7.67;7.67;;;;;21.43;47.55;101283.03;5035177;28;45349;-75
2022/08/30 03:01:07;;;;;;;;;6.00;6.00;;;;;21.37;48.06;101272.34;5025767;28;45511;-75
2022/08/30 03:03:33;;;;;;;;;8.00;8.00;;;;;21.29;48.29;101274.34;5017727;28;46397;-76
2022/08/30 03:05:58;;;;;;;;;6.67;6.00;;;;;21.26;48.34;101285.63;5017997;28;45377;-74
2022/08/30 03:08:23;;;;;;;;;7.00;7.00;;;;;21.21;48.62;101304.41;5018044;28;45322;-74
2022/08/30 03:10:49;;;;;;;;;7.67;6.67;;;;;21.18;49.05;101307.56;5017884;28;45679;-74
2022/08/30 03:13:15;;;;;;;;;6.00;6.00;;;;;21.14;49.08;101296.41;5018016;28;45356;-74
2022/08/30 03:15:40;;;;;;;;;8.00;7.00;;;;;21.12;49.46;101297.69;5018302;28;45477;-75
2022/08/30 03:18:06;;;;;;;;;10.00;8.00;;;;;21.08;48.88;101301.91;5036666;28;45829;-75
2022/08/30 03:20:33;;;;;;;;;6.00;6.00;;;;;21.05;48.91;101314.00;5020978;28;45553;-75
2022/08/30 03:22:59;;;;;;;;;8.67;6.67;;;;;21.09;48.70;101319.75;5017787;28;45723;-75
2022/08/30 03:25:25;;;;;;;;;8.33;7.67;;;;;21.05;49.31;101322.94;5017592;28;45290;-75
2022/08/30 03:27:50;;;;;;;;;8.00;6.33;;;;;21.04;50.39;101324.00;5019983;28;45354;-74
2022/08/30 03:30:17;;;;;;;;;6.00;6.00;;;;;20.99;50.24;101329.28;5017279;28;45437;-76
2022/08/30 03:32:43;;;;;;;;;8.33;6.67;;;;;20.92;51.79;101339.34;5017529;28;45703;-78
2022/08/30 03:35:08;;;;;;;;;8.33;8.33;;;;;20.77;53.00;101328.94;5017581;28;45308;-77
2022/08/30 03:37:34;;;;;;;;;6.00;6.00;;;;;20.65;53.95;101318.09;5017220;28;45314;-77
2022/08/30 03:40:01;;;;;;;;;10.00;9.00;;;;;20.52;55.03;101313.66;5017699;28;45384;-77
2022/08/30 03:42:26;;;;;;;;;10.67;10.67;;;;;20.39;56.13;101310.09;5017212;28;46658;-78
2022/08/30 03:44:52;;;;;;;;;10.67;10.33;;;;;20.35;57.48;101308.06;5017410;28;45309;-77
2022/08/30 03:47:17;;;;;;;;;8.67;7.67;;;;;20.23;58.28;101305.31;5029117;28;45357;-78
2022/08/30 03:49:43;;;;;;;;;10.33;9.00;;;;;20.21;58.70;101310.94;5018388;28;45332;-77
2022/08/30 03:52:09;;;;;;;;;8.67;8.67;;;;;20.16;58.57;101311.59;5043536;28;47143;-77
2022/08/30 03:54:34;;;;;;;;;10.33;8.67;;;;;20.09;59.33;101310.03;5032896;28;46591;-78
2022/08/30 03:57:00;;;;;;;;;10.00;10.00;;;;;20.00;59.82;101310.28;5022261;28;45163;-78
2022/08/30 03:59:25;;;;;;;;;9.67;8.00;;;;;19.96;60.03;101300.16;5026348;28;45221;-78
2022/08/30 04:01:50;;;;;;;;;10.33;9.67;;;;;19.91;61.67;101290.84;5017076;28;46452;-78
2022/08/30 04:04:16;;;;;;;;;12.00;12.00;;;;;19.78;62.40;101274.81;5017369;28;45421;-78
2022/08/30 04:06:42;;;;;;;;;8.67;8.67;;;;;19.72;62.83;101265.75;5017310;28;45238;-79
2022/08/30 04:09:08;;;;;;;;;7.33;6.67;;;;;19.65;62.33;101265.00;5022572;28;46202;-77
2022/08/30 04:11:33;;;;;;;;;13.00;13.00;;;;;19.64;61.61;101260.66;5024048;28;45276;-78
2022/08/30 04:13:59;;;;;;;;;43.33;35.33;;;;;19.60;61.80;101264.84;5016717;28;47902;-78
2022/08/30 04:16:25;;;;;;;;;30.00;28.33;;;;;19.49;62.86;101245.66;5026291;28;45298;-78
2022/08/30 04:18:50;;;;;;;;;13.00;13.00;;;;;19.41;63.07;101230.59;5020246;28;45473;-78
2022/08/30 04:21:15;;;;;;;;;9.67;9.67;;;;;19.35;63.73;101230.66;5024092;28;48258;-79
2022/08/30 04:23:42;;;;;;;;;11.00;11.00;;;;;19.27;64.22;101229.06;5034920;28;46006;-79
2022/08/30 04:26:08;;;;;;;;;9.67;8.67;;;;;19.15;64.96;101219.00;5017385;28;45157;-79
2022/08/30 04:28:34;;;;;;;;;23.67;20.33;;;;;19.09;65.18;101221.78;5016827;28;45453;-78
2022/08/30 04:31:07;;;;;;;;;23.67;23.67;;;;;19.12;64.98;101224.00;5030495;28;47583;-78
2022/08/30 04:33:34;;;;;;;;;65.25;51.75;;;;;19.07;65.89;101207.66;5016788;28;45223;-78
2022/08/30 04:36:03;;;;;;;;;48.25;39.25;;;;;19.02;65.71;101195.69;5033195;28;45375;-78
2022/08/30 04:38:29;;;;;;;;;110.25;94.25;;;;;19.08;66.13;101199.38;5026142;28;45398;-78
2022/08/30 04:40:54;;;;;;;;;71.25;59.75;;;;;19.09;66.72;101195.63;5016300;28;46439;-77
2022/08/30 04:43:19;;;;;;;;;23.00;23.00;;;;;19.15;65.87;101196.63;5020310;28;45303;-77
2022/08/30 04:45:45;;;;;;;;;14.00;12.33;;;;;19.05;66.21;101191.72;5016782;28;45304;-76
2022/08/30 04:48:10;;;;;;;;;68.00;52.50;;;;;19.12;66.22;101210.53;5016609;28;45523;-77
2022/08/30 04:50:35;;;;;;;;;61.00;48.00;;;;;19.07;65.79;101213.03;5043085;28;47826;-76
2022/08/30 04:53:01;;;;;;;;;20.00;16.00;;;;;19.07;65.73;101216.56;5018404;28;45246;-77
2022/08/30 04:55:27;;;;;;;;;13.00;11.33;;;;;19.08;65.90;101231.72;5016596;28;45227;-77
2022/08/30 04:57:52;;;;;;;;;15.00;13.33;;;;;19.07;65.98;101229.19;5028268;28;45590;-77
2022/08/30 05:00:21;;;;;;;;;10.33;8.33;;;;;19.08;65.23;101238.94;5034469;28;47352;-77
2022/08/30 05:02:47;;;;;;;;;9.33;8.67;;;;;19.01;65.50;101236.28;5026103;28;45371;-77
2022/08/30 05:07:56;;;;;;;;;31.00;29.33;;;;;18.98;67.36;101240.25;5016289;28;45384;-77
2022/08/30 05:10:22;;;;;;;;;38.33;33.33;;;;;18.97;65.51;101235.09;5015862;28;45348;-77
2022/08/30 05:12:48;;;;;;;;;22.33;19.67;;;;;18.97;66.61;101241.28;5016300;28;45348;-77
2022/08/30 05:15:13;;;;;;;;;21.00;18.33;;;;;18.96;66.55;101244.19;5016095;28;45441;-77
2022/08/30 05:17:40;;;;;;;;;31.00;27.33;;;;;18.94;66.92;101255.19;5026222;28;45348;-77
2022/08/30 05:20:07;;;;;;;;;29.33;27.67;;;;;18.87;66.75;101255.25;5016132;28;45674;-77
2022/08/30 05:22:35;;;;;;;;;25.33;21.67;;;;;18.87;67.54;101257.94;5033550;28;45378;-77
2022/08/30 05:25:00;;;;;;;;;30.33;24.67;;;;;18.84;67.94;101254.84;5024744;28;45288;-77
2022/08/30 05:27:25;;;;;;;;;32.00;29.67;;;;;18.78;67.88;101238.53;5015756;28;45639;-76
2022/08/30 05:29:51;;;;;;;;;21.00;19.33;;;;;18.79;68.03;101256.31;5020434;28;47296;-77
2022/08/30 05:32:17;;;;;;;;;42.00;34.33;;;;;18.82;68.13;101252.38;5014559;28;45417;-77
2022/08/30 05:34:43;;;;;;;;;50.00;39.75;;;;;18.80;67.75;101252.59;5016346;28;45304;-77
2022/08/30 05:37:08;;;;;;;;;51.25;41.00;;;;;18.84;67.83;101252.97;5015803;28;45314;-77
2022/08/30 05:39:33;;;;;;;;;63.00;49.75;;;;;18.77;67.59;101244.13;5015605;28;45345;-77
2022/08/30 05:41:59;;;;;;;;;66.75;53.50;;;;;18.78;68.60;101252.00;5022308;28;45668;-76
2022/08/30 05:44:25;;;;;;;;;35.00;29.00;;;;;18.82;68.13;101262.31;5014355;28;45255;-77
2022/08/30 05:46:50;;;;;;;;;37.33;33.33;;;;;18.81;68.05;101258.81;5015760;28;45256;-76
2022/08/30 05:49:16;;;;;;;;;15.00;14.00;;;;;18.78;67.64;101262.75;5028185;28;46965;-77
2022/08/30 05:51:41;;;;;;;;;23.33;23.33;;;;;18.81;67.59;101258.81;5015903;28;45301;-77
2022/08/30 05:54:07;;;;;;;;;43.00;35.67;;;;;18.79;68.09;101261.72;5015753;28;45173;-76
2022/08/30 05:56:36;;;;;;;;;32.00;28.33;;;;;18.81;68.36;101261.50;5032517;28;47309;-76
2022/08/30 05:59:05;;;;;;;;;30.67;27.33;;;;;18.82;69.07;101271.22;5027713;28;46133;-76
2022/08/30 06:01:32;;;;;;;;;29.33;27.00;;;;;18.81;69.32;101274.97;5015975;28;45498;-77
2022/08/30 06:04:01;;;;;;;;;39.67;32.67;;;;;18.82;69.15;101279.28;5023458;28;45197;-77
2022/08/30 06:06:29;;;;;;;;;27.33;26.33;;;;;18.78;68.90;101281.59;5025970;28;45400;-77
2022/08/30 06:08:54;;;;;;;;;20.33;19.00;;;;;18.74;69.62;101287.63;5052429;28;47417;-76
2022/08/30 06:11:22;;;;;;;;;20.33;19.33;;;;;18.75;70.08;101283.91;5034288;28;45356;-77
2022/08/30 06:13:48;;;;;;;;;18.00;17.33;;;;;18.78;71.07;101284.31;5018320;28;45289;-76
2022/08/30 06:16:16;;;;;;;;;12.00;12.00;;;;;18.84;69.86;101287.16;5026042;28;47481;-75
2022/08/30 06:18:42;;;;;;;;;11.33;10.00;;;;;18.85;70.18;101289.63;5023453;28;45447;-76
2022/08/30 06:21:08;;;;;;;;;13.00;12.33;;;;;18.92;70.11;101278.81;5021025;28;45356;-77
2022/08/30 06:23:34;;;;;;;;;11.33;11.33;;;;;19.01;69.42;101282.09;5018630;28;45307;-76
2022/08/30 06:26:05;;;;;;;;;13.00;12.33;;;;;19.08;69.12;101282.88;5018378;28;45572;-77
2022/08/30 06:28:31;;;;;;;;;16.67;16.67;;;;;19.13;69.29;101277.66;5018158;28;46436;-76
2022/08/30 06:30:56;;;;;;;;;12.67;12.67;;;;;19.22;68.97;101272.84;5018294;28;45501;-75
2022/08/30 06:33:21;;;;;;;;;11.00;10.00;;;;;19.26;69.27;101268.66;5023985;28;45938;-75
2022/08/30 06:35:47;;;;;;;;;11.00;11.00;;;;;19.31;69.04;101268.00;5016816;28;46536;-75
2022/08/30 06:38:12;;;;;;;;;12.33;12.33;;;;;19.40;69.10;101274.75;5021688;28;46987;-74
2022/08/30 06:40:37;;;;;;;;;9.33;9.33;;;;;19.44;68.66;101275.16;5018233;28;45327;-75
2022/08/30 06:43:03;;;;;;;;;8.67;8.67;;;;;19.53;68.40;101287.31;5033712;28;45535;-74
2022/08/30 06:45:29;;;;;;;;;13.33;12.33;;;;;19.53;68.07;101279.22;5017990;28;45313;-74
2022/08/30 06:47:55;;;;;;;;;12.00;11.67;;;;;19.62;68.22;101284.31;5018035;28;45611;-74
2022/08/30 06:50:20;;;;;;;;;9.00;9.00;;;;;19.61;67.28;101271.88;5023392;28;45741;-75
2022/08/30 06:52:46;;;;;;;;;11.00;11.00;;;;;19.63;66.95;101284.09;5017989;28;45419;-75
2022/08/30 06:55:13;;;;;;;;;14.33;13.33;;;;;19.59;67.37;101271.28;5026245;28;45272;-77
2022/08/30 06:57:39;;;;;;;;;13.67;13.00;;;;;19.70;67.69;101286.75;5030246;28;45402;-76
2022/08/30 07:00:07;;;;;;;;;12.00;12.00;;;;;19.74;67.53;101281.72;5022951;28;45272;-77
2022/08/30 07:02:33;;;;;;;;;13.00;13.00;;;;;19.73;67.51;101277.38;5025362;28;45415;-75
2022/08/30 07:04:58;;;;;;;;;15.33;13.67;;;;;19.81;67.97;101294.09;5021928;28;45408;-75
2022/08/30 07:07:23;;;;;;;;;15.00;13.00;;;;;19.86;67.35;101293.41;5017859;28;46207;-75
2022/08/30 07:09:49;;;;;;;;;11.00;11.00;;;;;19.81;66.80;101286.00;5018015;28;45384;-75
2022/08/30 07:12:15;;;;;;;;;9.67;9.67;;;;;19.87;66.72;101291.56;5017319;28;45485;-75
2022/08/30 07:14:41;;;;;;;;;12.00;12.00;;;;;19.86;66.71;101290.72;5018334;28;45534;-76
2022/08/30 07:19:52;;;;;;;;;12.33;12.00;;;;;19.93;65.44;101299.56;5026370;28;45341;-75
2022/08/30 07:22:17;;;;;;;;;11.33;11.33;;;;;19.94;65.27;101303.09;5043583;28;45949;-76
2022/08/30 07:24:43;;;;;;;;;13.00;11.00;;;;;19.96;65.42;101298.28;5034283;28;45375;-76
2022/08/30 07:27:08;;;;;;;;;13.67;11.33;;;;;20.03;65.76;101304.47;5022587;28;47225;-77
2022/08/30 07:29:33;;;;;;;;;11.67;11.67;;;;;20.04;65.33;101298.03;5024683;28;45257;-77
2022/08/30 07:31:59;;;;;;;;;11.00;9.67;;;;;20.05;64.98;101304.22;5018388;28;45636;-77
2022/08/30 07:34:24;;;;;;;;;9.00;9.00;;;;;20.08;64.88;101303.78;5017717;28;45498;-76
2022/08/30 07:36:49;;;;;;;;;11.33;11.33;;;;;20.12;64.31;101312.28;5024418;28;46913;-76
2022/08/30 07:39:15;;;;;;;;;10.67;10.67;;;;;20.14;63.29;101310.19;5033177;28;45246;-76
2022/08/30 07:41:40;;;;;;;;;11.67;11.00;;;;;20.20;64.03;101313.84;5017459;28;45224;-77
2022/08/30 07:44:06;;;;;;;;;11.00;9.00;;;;;20.27;64.46;101314.59;5018683;28;45437;-76
2022/08/30 07:46:32;;;;;;;;;10.33;9.33;;;;;20.34;64.47;101311.81;5017671;28;45600;-77
2022/08/30 07:48:59;;;;;;;;;14.33;11.67;;;;;20.46;64.71;101319.97;5022710;28;45355;-77
2022/08/30 07:51:26;;;;;;;;;17.00;16.00;;;;;20.52;64.85;101316.34;5016067;28;45338;-77
2022/08/30 07:53:53;;;;;;;;;12.33;11.00;;;;;20.52;63.12;101317.19;5017774;28;45468;-76
2022/08/30 07:56:18;;;;;;;;;10.67;9.00;;;;;20.59;63.61;101311.69;5017190;28;46530;-76
2022/08/30 07:58:43;;;;;;;;;11.00;10.67;;;;;20.64;63.19;101305.59;5031460;28;45283;-77
2022/08/30 08:01:11;;;;;;;;;12.33;10.00;;;;;20.69;63.14;101317.38;5017537;28;45338;-76
2022/08/30 08:03:39;;;;;;;;;10.33;10.33;;;;;20.71;63.69;101319.03;5024370;27;47141;-76
2022/08/30 08:06:06;;;;;;;;;10.33;9.67;;;;;20.78;62.54;101320.59;5035328;28;46634;-76
2022/08/30 08:08:32;;;;;;;;;10.00;10.00;;;;;20.81;63.60;101317.41;5034766;28;45543;-76
2022/08/30 08:11:04;;;;;;;;;12.00;12.00;;;;;20.82;62.52;101307.44;5030382;27;45934;-78
2022/08/30 08:13:29;;;;;;;;;10.00;8.00;;;;;20.84;62.61;101315.31;5029911;28;45646;-77
2022/08/30 08:15:54;;;;;;;;;11.33;10.00;;;;;20.91;62.11;101318.78;5027554;28;45830;-79
2022/08/30 08:18:20;;;;;;;;;12.67;10.33;;;;;20.90;61.23;101315.28;5031117;28;45427;-77
2022/08/30 08:20:46;;;;;;;;;8.00;8.00;;;;;20.90;61.36;101315.28;5024359;28;45290;-76
2022/08/30 08:23:11;;;;;;;;;8.33;8.33;;;;;20.91;62.09;101318.78;5038761;28;45194;-77
2022/08/30 08:25:39;;;;;;;;;12.67;11.33;;;;;21.02;62.15;101327.97;5025244;28;46237;-78
2022/08/30 08:28:05;;;;;;;;;10.67;10.67;;;;;21.06;61.32;101329.16;5046936;27;45678;-77
2022/08/30 08:30:34;;;;;;;;;10.67;10.00;;;;;21.11;60.56;101336.59;5024870;28;45244;-78
2022/08/30 08:32:59;;;;;;;;;9.33;9.00;;;;;21.13;60.99;101334.47;5029803;28;46568;-78
2022/08/30 08:35:25;;;;;;;;;11.00;9.67;;;;;21.25;60.44;101342.63;5022915;28;45366;-78
2022/08/30 08:37:50;;;;;;;;;9.00;9.00;;;;;21.30;60.94;101348.97;5015993;28;45780;-79
2022/08/30 08:40:18;;;;;;;;;10.67;10.67;;;;;21.38;61.42;101347.81;5026931;28;45604;-79
2022/08/30 08:43:00;;;;;;;;;11.00;9.33;;;;;21.41;60.18;101347.34;5020106;28;45452;-79
2022/08/30 08:45:38;;;;;;;;;10.00;10.00;;;;;21.43;60.41;101345.22;5031892;28;48120;-79
2022/08/30 08:48:13;;;;;;;;;10.00;9.67;;;;;21.50;60.59;101345.13;5028526;28;45367;-78
2022/08/30 08:53:33;;;;;;;;;10.67;10.67;;;;;21.49;60.67;101348.88;5017503;28;45475;-78
2022/08/30 08:53:34;;;;;;;;;11.67;10.00;;;;;21.56;61.08;101349.59;5035445;28;45579;-79
2022/08/30 08:56:04;;;;;;;;;14.00;10.67;;;;;21.64;62.23;101353.81;5035238;28;47215;-77
2022/08/30 08:58:40;;;;;;;;;10.00;10.00;;;;;21.68;61.44;101359.59;5034677;28;45466;-78
2022/08/30 09:01:08;;;;;;;;;10.33;10.33;;;;;21.70;60.46;101363.72;5033912;28;45571;-78
2022/08/30 09:03:34;;;;;;;;;9.33;9.00;;;;;21.75;59.48;101360.34;5017185;28;45355;-77
2022/08/30 09:06:05;;;;;;;;;11.67;8.67;;;;;21.78;59.13;101356.34;5026883;28;45336;-78
2022/08/30 09:08:31;;;;;;;;;10.00;9.00;;;;;21.83;59.84;101353.75;5029082;28;45319;-79
2022/08/30 09:11:03;;;;;;;;;12.00;10.67;;;;;21.91;59.13;101355.28;5026342;28;47042;-79
2022/08/30 09:13:29;;;;;;;;;10.00;10.00;;;;;21.97;58.78;101359.75;5022832;28;46474;-78
2022/08/30 09:15:57;;;;;;;;;10.00;10.00;;;;;22.03;58.51;101366.91;5021085;28;46448;-78
2022/08/30 09:18:43;;;;;;;;;12.67;12.00;;;;;22.11;57.19;101363.03;5026444;28;45346;-78
2022/08/30 09:21:10;;;;;;;;;11.67;11.00;;;;;22.13;57.10;101369.03;5018914;28;45383;-77
2022/08/30 09:23:36;;;;;;;;;9.67;8.67;;;;;22.18;58.07;101365.63;5052212;27;46120;-78
2022/08/30 09:26:05;;;;;;;;;10.00;9.00;;;;;22.29;58.30;101375.59;5023958;28;46190;-78
2022/08/30 09:28:42;;;;;;;;;10.00;9.67;;;;;22.36;58.71;101378.19;5032954;28;45411;-78
2022/08/30 09:31:31;;;;;;;;;9.00;8.00;;;;;22.46;59.26;101372.16;5016048;28;45342;-79
2022/08/30 09:34:04;;;;;;;;;10.33;10.33;;;;;22.60;58.46;101386.28;5014841;28;45517;-78
2022/08/30 09:36:43;;;;;;;;;17.67;17.00;;;;;22.67;57.19;101381.56;5030542;28;45480;-78
2022/08/30 09:39:27;;;;;;;;;28.33;25.00;;;;;22.66;56.74;101374.47;5033695;28;45742;-79
2022/08/30 09:41:53;;;;;;;;;14.67;14.00;;;;;22.79;58.13;101378.81;5026706;28;45326;-81
2022/08/30 09:44:30;;;;;;;;;15.33;14.67;;;;;22.94;57.35;101391.00;5018233;28;45349;-84
2022/08/30 09:46:58;;;;;;;;;10.00;10.00;;;;;23.06;56.10;101378.22;5024292;28;45439;-80
2022/08/30 09:49:36;;;;;;;;;12.00;11.33;;;;;23.16;55.35;101385.69;5018658;28;45426;-83
2022/08/30 09:52:44;;;;;;;;;14.67;11.67;;;;;23.30;57.04;101383.50;5018952;28;45911;-81
2022/08/30 09:55:30;;;;;;;;;11.00;10.33;;;;;23.43;55.62;101381.56;5012920;28;46304;-82
2022/08/30 09:58:38;;;;;;;;;10.33;10.33;;;;;23.55;54.99;101381.47;5041258;28;48318;-80
2022/08/30 10:01:09;;;;;;;;;9.00;9.00;;;;;23.63;55.17;101381.09;5019993;28;45424;-80
2022/08/30 10:03:42;;;;;;;;;10.00;9.00;;;;;23.71;54.69;101394.22;5036263;28;45429;-82
2022/08/30 10:06:11;;;;;;;;;10.00;9.67;;;;;23.71;54.10;101386.09;5032268;28;45407;-78
2022/08/30 10:09:09;;;;;;;;;10.33;10.33;;;;;23.80;54.22;101382.97;5018289;28;46575;-81
2022/08/30 10:11:41;;;;;;;;;8.33;8.33;;;;;23.86;54.17;101375.72;5033871;28;45484;-82
2022/08/30 10:14:20;;;;;;;;;9.33;9.33;;;;;23.94;54.96;101370.69;5109416;27;45497;-81
2022/08/30 10:17:23;;;;;;;;;8.00;8.00;;;;;24.06;53.41;101381.44;5028139;28;45356;-82
2022/08/30 10:20:01;;;;;;;;;8.00;8.00;;;;;24.12;53.81;101381.53;5024198;28;47492;-80
2022/08/30 10:22:46;;;;;;;;;9.67;9.33;;;;;24.25;52.67;101375.75;5033407;28;45704;-81
2022/08/30 10:25:27;;;;;;;;;10.00;10.00;;;;;24.45;52.84;101382.50;5018635;28;45512;-80
2022/08/30 10:28:02;;;;;;;;;12.67;10.00;;;;;24.61;52.58;101379.97;5018260;28;45204;-82
2022/08/30 10:30:32;;;;;;;;;11.67;8.67;;;;;24.74;51.83;101363.28;5027320;28;47262;-80
2022/08/30 10:33:03;;;;;;;;;12.33;10.00;;;;;24.87;52.27;101372.94;5019451;28;45377;-79
2022/08/30 10:35:34;;;;;;;;;11.00;11.00;;;;;24.96;51.57;101368.69;5018313;28;45289;-80
2022/08/30 10:38:09;;;;;;;;;12.67;12.67;;;;;25.01;51.44;101372.53;5016786;28;46347;-80
2022/08/30 10:43:30;;;;;;;;;12.67;11.00;;;;;25.08;50.68;101378.63;5024821;28;45372;-80
2022/08/30 10:46:00;;;;;;;;;13.00;10.00;;;;;25.03;51.28;101362.22;5021895;28;45488;-80
2022/08/30 10:48:32;;;;;;;;;11.00;11.00;;;;;25.12;50.48;101373.47;5036287;28;45359;-81
2022/08/30 10:51:07;;;;;;;;;11.33;10.33;;;;;25.17;51.20;101379.75;5034341;28;48035;-80
2022/08/30 10:53:43;;;;;;;;;10.00;10.00;;;;;25.27;50.79;101373.63;5017427;28;45240;-80
2022/08/30 10:56:13;;;;;;;;;11.67;11.00;;;;;25.34;52.63;101379.66;5031562;28;45480;-80
2022/08/30 10:58:40;;;;;;;;;12.00;12.00;;;;;25.41;52.10;101373.19;5028299;28;45837;-80
2022/08/30 11:01:29;;;;;;;;;14.67;14.00;;;;;25.53;51.52;101375.72;5017667;28;46501;-82
2022/08/30 11:04:16;;;;;;;;;10.33;10.33;;;;;25.58;48.76;101381.19;5017639;28;45232;-82
2022/08/30 11:06:56;;;;;;;;;9.67;9.67;;;;;25.60;50.15;101379.06;5039678;28;45830;-83
2022/08/30 11:09:34;;;;;;;;;10.00;10.00;;;;;25.64;49.60;101382.91;5017806;28;45274;-78
2022/08/30 11:12:21;;;;;;;;;14.33;13.00;;;;;25.70;50.37;101386.47;5030819;28;46992;-82
2022/08/30 11:14:47;;;;;;;;;10.00;10.00;;;;;25.72;49.13;101381.59;5036721;28;46195;-82
2022/08/30 11:17:35;;;;;;;;;12.00;11.00;;;;;25.76;49.08;101376.44;5024470;28;45490;-82
2022/08/30 11:20:18;;;;;;;;;10.67;10.67;;;;;25.81;50.68;101381.91;5023879;28;46257;-82
2022/08/30 11:23:14;;;;;;;;;10.00;9.00;;;;;25.87;50.63;101383.59;5025774;28;45411;-81
2022/08/30 11:26:18;;;;;;;;;16.33;12.00;;;;;25.95;49.76;101377.66;5027297;28;45440;-82
2022/08/30 11:28:44;;;;;;;;;12.00;10.33;;;;;26.03;49.34;101376.34;5059597;28;45344;-83
2022/08/30 11:31:10;;;;;;;;;12.00;12.00;;;;;26.06;49.29;101383.97;5027992;27;47490;-81
2022/08/30 11:33:46;;;;;;;;;10.33;10.00;;;;;26.16;50.09;101379.69;5030461;28;45358;-81